sensor_id;sensor_type;location;lat;lon;timestamp;temperature;humidity
75782;DHT22;64400;44.762;37.698;2023-02-15T00:01:11;1.72;102.96
75782;DHT22;64400;44.762;37.698;2023-02-15T00:03:39;1.71;103.00
75782;DHT22;64400;44.762;37.698;2023-02-15T00:06:07;1.69;102.93
75782;DHT22;64400;44.762;37.698;2023-02-15T00:08:35;1.71;103.34
75782;DHT22;64400;44.762;37.698;2023-02-15T00:11:10;1.68;103.38
75782;DHT22;64400;44.762;37.698;2023-02-15T00:13:38;1.65;103.44
75782;DHT22;64400;44.762;37.698;2023-02-15T00:16:10;1.65;103.54
75782;DHT22;64400;44.762;37.698;2023-02-15T00:18:39;1.63;103.64
75782;DHT22;64400;44.762;37.698;2023-02-15T00:21:09;1.66;103.60
75782;DHT22;64400;44.762;37.698;2023-02-15T00:23:37;1.63;103.70
75782;DHT22;64400;44.762;37.698;2023-02-15T00:26:11;1.64;103.83
75782;DHT22;64400;44.762;37.698;2023-02-15T00:28:42;1.64;103.63
75782;DHT22;64400;44.762;37.698;2023-02-15T00:31:11;1.67;103.43
75782;DHT22;64400;44.762;37.698;2023-02-15T00:33:39;1.69;103.27
75782;DHT22;64400;44.762;37.698;2023-02-15T00:36:08;1.75;102.98
75782;DHT22;64400;44.762;37.698;2023-02-15T00:38:37;1.76;102.92
75782;DHT22;64400;44.762;37.698;2023-02-15T00:41:06;1.71;102.96
75782;DHT22;64400;44.762;37.698;2023-02-15T00:43:35;1.68;103.10
75782;DHT22;64400;44.762;37.698;2023-02-15T00:46:04;1.68;103.24
75782;DHT22;64400;44.762;37.698;2023-02-15T00:48:33;1.70;103.28
75782;DHT22;64400;44.762;37.698;2023-02-15T00:51:01;1.65;103.66
75782;DHT22;64400;44.762;37.698;2023-02-15T00:53:29;1.63;103.74
75782;DHT22;64400;44.762;37.698;2023-02-15T00:55:58;1.66;103.41
75782;DHT22;64400;44.762;37.698;2023-02-15T00:58:26;1.65;103.24
75782;DHT22;64400;44.762;37.698;2023-02-15T01:00:54;1.63;103.42
75782;DHT22;64400;44.762;37.698;2023-02-15T01:03:23;1.62;103.38
75782;DHT22;64400;44.762;37.698;2023-02-15T01:05:51;1.65;103.33
75782;DHT22;64400;44.762;37.698;2023-02-15T01:08:19;1.65;103.23
75782;DHT22;64400;44.762;37.698;2023-02-15T01:10:47;1.65;103.23
75782;DHT22;64400;44.762;37.698;2023-02-15T01:13:17;1.65;103.12
75782;DHT22;64400;44.762;37.698;2023-02-15T01:15:45;1.64;103.00
75782;DHT22;64400;44.762;37.698;2023-02-15T01:18:13;1.61;103.12
75782;DHT22;64400;44.762;37.698;2023-02-15T01:20:42;1.61;103.00
75782;DHT22;64400;44.762;37.698;2023-02-15T01:23:10;1.56;102.93
75782;DHT22;64400;44.762;37.698;2023-02-15T01:25:38;1.61;103.07
75782;DHT22;64400;44.762;37.698;2023-02-15T01:28:06;1.56;102.74
75782;DHT22;64400;44.762;37.698;2023-02-15T01:30:33;1.55;102.86
75782;DHT22;64400;44.762;37.698;2023-02-15T01:33:01;1.52;102.79
75782;DHT22;64400;44.762;37.698;2023-02-15T01:35:31;1.50;102.63
75782;DHT22;64400;44.762;37.698;2023-02-15T01:37:59;1.48;102.52
75782;DHT22;64400;44.762;37.698;2023-02-15T01:40:27;1.45;102.51
75782;DHT22;64400;44.762;37.698;2023-02-15T01:42:55;1.48;102.55
75782;DHT22;64400;44.762;37.698;2023-02-15T01:45:27;1.46;102.58
75782;DHT22;64400;44.762;37.698;2023-02-15T01:48:08;1.41;102.89
75782;DHT22;64400;44.762;37.698;2023-02-15T01:50:50;1.37;103.58
75782;DHT22;64400;44.762;37.698;2023-02-15T01:53:57;1.35;104.23
75782;DHT22;64400;44.762;37.698;2023-02-15T01:56:30;1.37;104.35
75782;DHT22;64400;44.762;37.698;2023-02-15T01:59:09;1.38;104.31
75782;DHT22;64400;44.762;37.698;2023-02-15T02:01:39;1.39;104.32
75782;DHT22;64400;44.762;37.698;2023-02-15T02:04:13;1.42;104.24
75782;DHT22;64400;44.762;37.698;2023-02-15T02:06:44;1.42;104.28
75782;DHT22;64400;44.762;37.698;2023-02-15T02:09:13;1.45;104.19
75782;DHT22;64400;44.762;37.698;2023-02-15T02:11:44;1.46;104.12
75782;DHT22;64400;44.762;37.698;2023-02-15T02:14:13;1.45;104.31
75782;DHT22;64400;44.762;37.698;2023-02-15T02:19:43;1.47;104.44
75782;DHT22;64400;44.762;37.698;2023-02-15T02:33:57;1.49;104.27
75782;DHT22;64400;44.762;37.698;2023-02-15T02:36:41;1.50;104.25
75782;DHT22;64400;44.762;37.698;2023-02-15T02:44:42;1.50;103.83
75782;DHT22;64400;44.762;37.698;2023-02-15T02:47:18;1.47;103.76
75782;DHT22;64400;44.762;37.698;2023-02-15T02:49:48;1.48;103.75
75782;DHT22;64400;44.762;37.698;2023-02-15T02:57:37;1.47;103.66
75782;DHT22;64400;44.762;37.698;2023-02-15T03:00:07;1.47;103.74
75782;DHT22;64400;44.762;37.698;2023-02-15T03:02:40;1.47;103.77
75782;DHT22;64400;44.762;37.698;2023-02-15T03:05:14;1.49;103.73
75782;DHT22;64400;44.762;37.698;2023-02-15T03:07:46;1.48;103.51
75782;DHT22;64400;44.762;37.698;2023-02-15T03:10:15;1.47;103.57
75782;DHT22;64400;44.762;37.698;2023-02-15T03:12:45;1.48;103.67
75782;DHT22;64400;44.762;37.698;2023-02-15T03:15:17;1.48;103.86
75782;DHT22;64400;44.762;37.698;2023-02-15T03:18:05;1.52;103.78
75782;DHT22;64400;44.762;37.698;2023-02-15T03:20:35;1.52;103.76
75782;DHT22;64400;44.762;37.698;2023-02-15T03:23:06;1.53;103.77
75782;DHT22;64400;44.762;37.698;2023-02-15T03:25:40;1.52;103.80
75782;DHT22;64400;44.762;37.698;2023-02-15T03:28:19;1.51;103.60
75782;DHT22;64400;44.762;37.698;2023-02-15T03:30:53;1.49;103.76
75782;DHT22;64400;44.762;37.698;2023-02-15T03:33:23;1.47;103.95
75782;DHT22;64400;44.762;37.698;2023-02-15T03:36:27;1.49;104.09
75782;DHT22;64400;44.762;37.698;2023-02-15T03:39:32;1.52;103.74
75782;DHT22;64400;44.762;37.698;2023-02-15T03:42:13;1.52;103.51
75782;DHT22;64400;44.762;37.698;2023-02-15T03:45:03;1.51;103.34
75782;DHT22;64400;44.762;37.698;2023-02-15T03:47:36;1.52;103.14
75782;DHT22;64400;44.762;37.698;2023-02-15T03:50:11;1.53;103.17
75782;DHT22;64400;44.762;37.698;2023-02-15T03:52:59;1.49;103.31
75782;DHT22;64400;44.762;37.698;2023-02-15T03:55:30;1.51;103.21
75782;DHT22;64400;44.762;37.698;2023-02-15T03:57:58;1.50;103.29
75782;DHT22;64400;44.762;37.698;2023-02-15T04:00:52;1.50;103.44
75782;DHT22;64400;44.762;37.698;2023-02-15T04:03:57;1.46;103.57
75782;DHT22;64400;44.762;37.698;2023-02-15T04:06:26;1.43;103.75
75782;DHT22;64400;44.762;37.698;2023-02-15T04:08:54;1.47;103.75
75782;DHT22;64400;44.762;37.698;2023-02-15T04:11:41;1.45;103.70
75782;DHT22;64400;44.762;37.698;2023-02-15T04:14:08;1.40;104.12
75782;DHT22;64400;44.762;37.698;2023-02-15T04:16:55;1.41;104.36
75782;DHT22;64400;44.762;37.698;2023-02-15T04:19:22;1.41;104.23
75782;DHT22;64400;44.762;37.698;2023-02-15T04:22:08;1.43;103.97
75782;DHT22;64400;44.762;37.698;2023-02-15T04:24:55;1.41;103.80
75782;DHT22;64400;44.762;37.698;2023-02-15T04:27:43;1.40;103.86
75782;DHT22;64400;44.762;37.698;2023-02-15T04:30:12;1.40;103.72
75782;DHT22;64400;44.762;37.698;2023-02-15T04:32:41;1.41;103.86
75782;DHT22;64400;44.762;37.698;2023-02-15T04:35:09;1.37;103.94
75782;DHT22;64400;44.762;37.698;2023-02-15T04:37:39;1.38;104.15
75782;DHT22;64400;44.762;37.698;2023-02-15T04:40:11;1.34;104.24
75782;DHT22;64400;44.762;37.698;2023-02-15T04:42:39;1.32;104.23
75782;DHT22;64400;44.762;37.698;2023-02-15T04:45:07;1.33;104.12
75782;DHT22;64400;44.762;37.698;2023-02-15T04:47:35;1.31;104.20
75782;DHT22;64400;44.762;37.698;2023-02-15T04:50:04;1.31;103.95
75782;DHT22;64400;44.762;37.698;2023-02-15T04:52:32;1.32;103.77
75782;DHT22;64400;44.762;37.698;2023-02-15T04:55:00;1.36;103.62
75782;DHT22;64400;44.762;37.698;2023-02-15T04:57:29;1.38;103.34
75782;DHT22;64400;44.762;37.698;2023-02-15T04:59:57;1.39;103.30
75782;DHT22;64400;44.762;37.698;2023-02-15T05:02:26;1.39;102.96
75782;DHT22;64400;44.762;37.698;2023-02-15T05:04:54;1.38;102.54
75782;DHT22;64400;44.762;37.698;2023-02-15T05:07:22;1.39;102.57
75782;DHT22;64400;44.762;37.698;2023-02-15T05:09:50;1.39;102.44
75782;DHT22;64400;44.762;37.698;2023-02-15T05:12:18;1.39;102.13
75782;DHT22;64400;44.762;37.698;2023-02-15T05:14:46;1.42;102.14
75782;DHT22;64400;44.762;37.698;2023-02-15T05:17:14;1.41;102.31
75782;DHT22;64400;44.762;37.698;2023-02-15T05:19:42;1.46;102.39
75782;DHT22;64400;44.762;37.698;2023-02-15T05:22:10;1.45;102.67
75782;DHT22;64400;44.762;37.698;2023-02-15T05:24:37;1.46;102.70
75782;DHT22;64400;44.762;37.698;2023-02-15T05:27:24;1.47;102.61
75782;DHT22;64400;44.762;37.698;2023-02-15T05:30:10;1.49;102.72
75782;DHT22;64400;44.762;37.698;2023-02-15T05:32:42;1.49;102.96
75782;DHT22;64400;44.762;37.698;2023-02-15T05:35:15;1.50;103.18
75782;DHT22;64400;44.762;37.698;2023-02-15T05:37:43;1.51;102.89
75782;DHT22;64400;44.762;37.698;2023-02-15T05:40:11;1.55;102.87
75782;DHT22;64400;44.762;37.698;2023-02-15T05:42:39;1.58;102.92
75782;DHT22;64400;44.762;37.698;2023-02-15T05:45:07;1.64;102.83
75782;DHT22;64400;44.762;37.698;2023-02-15T05:47:35;1.67;102.43
75782;DHT22;64400;44.762;37.698;2023-02-15T05:50:03;1.71;102.18
75782;DHT22;64400;44.762;37.698;2023-02-15T05:52:31;1.80;102.08
75782;DHT22;64400;44.762;37.698;2023-02-15T05:54:59;1.86;101.74
75782;DHT22;64400;44.762;37.698;2023-02-15T05:57:28;1.85;101.62
75782;DHT22;64400;44.762;37.698;2023-02-15T05:59:56;1.87;101.77
75782;DHT22;64400;44.762;37.698;2023-02-15T06:02:24;1.87;101.83
75782;DHT22;64400;44.762;37.698;2023-02-15T06:04:52;1.94;101.91
75782;DHT22;64400;44.762;37.698;2023-02-15T06:07:20;1.96;101.98
75782;DHT22;64400;44.762;37.698;2023-02-15T06:09:48;1.99;101.86
75782;DHT22;64400;44.762;37.698;2023-02-15T06:12:16;2.03;101.62
75782;DHT22;64400;44.762;37.698;2023-02-15T06:14:44;2.05;101.40
75782;DHT22;64400;44.762;37.698;2023-02-15T06:17:12;2.08;101.36
75782;DHT22;64400;44.762;37.698;2023-02-15T06:19:40;2.10;101.40
75782;DHT22;64400;44.762;37.698;2023-02-15T06:22:08;2.14;101.48
75782;DHT22;64400;44.762;37.698;2023-02-15T06:24:36;2.17;101.41
75782;DHT22;64400;44.762;37.698;2023-02-15T06:27:03;2.15;101.33
75782;DHT22;64400;44.762;37.698;2023-02-15T06:29:31;2.16;101.41
75782;DHT22;64400;44.762;37.698;2023-02-15T06:31:59;2.14;101.38
75782;DHT22;64400;44.762;37.698;2023-02-15T06:34:27;2.12;101.32
75782;DHT22;64400;44.762;37.698;2023-02-15T06:36:55;2.07;101.28
75782;DHT22;64400;44.762;37.698;2023-02-15T06:39:24;2.09;101.20
75782;DHT22;64400;44.762;37.698;2023-02-15T06:41:51;2.08;100.77
75782;DHT22;64400;44.762;37.698;2023-02-15T06:44:19;2.10;100.53
75782;DHT22;64400;44.762;37.698;2023-02-15T06:46:47;2.19;100.03
75782;DHT22;64400;44.762;37.698;2023-02-15T06:49:15;2.38;100.00
75782;DHT22;64400;44.762;37.698;2023-02-15T06:51:43;2.47;98.57
75782;DHT22;64400;44.762;37.698;2023-02-15T06:54:11;2.54;98.37
75782;DHT22;64400;44.762;37.698;2023-02-15T06:56:39;2.44;97.29
75782;DHT22;64400;44.762;37.698;2023-02-15T06:59:07;2.34;96.98
75782;DHT22;64400;44.762;37.698;2023-02-15T07:01:35;2.27;97.48
75782;DHT22;64400;44.762;37.698;2023-02-15T07:04:05;2.19;97.87
75782;DHT22;64400;44.762;37.698;2023-02-15T07:06:33;2.22;98.44
75782;DHT22;64400;44.762;37.698;2023-02-15T07:09:02;2.22;98.09
75782;DHT22;64400;44.762;37.698;2023-02-15T07:11:30;2.22;97.94
75782;DHT22;64400;44.762;37.698;2023-02-15T07:14:17;2.19;97.82
75782;DHT22;64400;44.762;37.698;2023-02-15T07:16:44;2.14;97.29
75782;DHT22;64400;44.762;37.698;2023-02-15T07:19:12;2.14;97.94
75782;DHT22;64400;44.762;37.698;2023-02-15T07:21:40;2.27;98.66
75782;DHT22;64400;44.762;37.698;2023-02-15T07:24:08;2.41;98.48
75782;DHT22;64400;44.762;37.698;2023-02-15T07:26:36;2.43;97.53
75782;DHT22;64400;44.762;37.698;2023-02-15T07:29:05;2.47;97.19
75782;DHT22;64400;44.762;37.698;2023-02-15T07:31:32;2.54;97.26
75782;DHT22;64400;44.762;37.698;2023-02-15T07:34:00;2.55;96.76
75782;DHT22;64400;44.762;37.698;2023-02-15T07:36:28;2.49;96.13
75782;DHT22;64400;44.762;37.698;2023-02-15T07:38:56;2.46;96.03
75782;DHT22;64400;44.762;37.698;2023-02-15T07:41:24;2.41;95.81
75782;DHT22;64400;44.762;37.698;2023-02-15T07:43:52;2.42;96.70
75782;DHT22;64400;44.762;37.698;2023-02-15T07:46:20;2.45;96.46
75782;DHT22;64400;44.762;37.698;2023-02-15T07:48:49;2.43;96.15
75782;DHT22;64400;44.762;37.698;2023-02-15T07:51:17;2.44;96.00
75782;DHT22;64400;44.762;37.698;2023-02-15T07:53:45;2.43;95.97
75782;DHT22;64400;44.762;37.698;2023-02-15T07:56:15;2.46;95.90
75782;DHT22;64400;44.762;37.698;2023-02-15T07:58:43;2.55;96.58
75782;DHT22;64400;44.762;37.698;2023-02-15T08:01:29;2.70;95.78
75782;DHT22;64400;44.762;37.698;2023-02-15T08:03:58;2.76;95.64
75782;DHT22;64400;44.762;37.698;2023-02-15T08:06:30;2.80;94.58
75782;DHT22;64400;44.762;37.698;2023-02-15T08:08:58;2.90;94.44
75782;DHT22;64400;44.762;37.698;2023-02-15T08:11:28;2.96;94.17
75782;DHT22;64400;44.762;37.698;2023-02-15T08:14:11;3.21;93.53
75782;DHT22;64400;44.762;37.698;2023-02-15T08:16:50;3.43;93.12
75782;DHT22;64400;44.762;37.698;2023-02-15T08:19:24;3.76;91.13
75782;DHT22;64400;44.762;37.698;2023-02-15T08:21:57;4.32;90.11
75782;DHT22;64400;44.762;37.698;2023-02-15T08:24:27;4.68;89.18
75782;DHT22;64400;44.762;37.698;2023-02-15T08:26:56;4.68;86.37
75782;DHT22;64400;44.762;37.698;2023-02-15T08:29:26;4.43;87.02
75782;DHT22;64400;44.762;37.698;2023-02-15T08:32:00;4.68;87.15
75782;DHT22;64400;44.762;37.698;2023-02-15T08:34:32;5.46;84.22
75782;DHT22;64400;44.762;37.698;2023-02-15T08:37:00;6.10;82.46
75782;DHT22;64400;44.762;37.698;2023-02-15T08:39:28;5.95;79.08
75782;DHT22;64400;44.762;37.698;2023-02-15T08:41:56;5.69;79.73
75782;DHT22;64400;44.762;37.698;2023-02-15T08:44:24;5.86;80.11
75782;DHT22;64400;44.762;37.698;2023-02-15T08:46:52;6.06;80.49
75782;DHT22;64400;44.762;37.698;2023-02-15T08:49:21;6.22;81.09
75782;DHT22;64400;44.762;37.698;2023-02-15T08:51:49;6.01;81.20
75782;DHT22;64400;44.762;37.698;2023-02-15T08:54:20;5.72;79.30
75782;DHT22;64400;44.762;37.698;2023-02-15T08:56:49;6.46;80.71
75782;DHT22;64400;44.762;37.698;2023-02-15T08:59:19;6.72;76.06
75782;DHT22;64400;44.762;37.698;2023-02-15T09:01:49;6.21;76.60
75782;DHT22;64400;44.762;37.698;2023-02-15T09:04:18;5.78;79.47
75782;DHT22;64400;44.762;37.698;2023-02-15T09:06:48;5.48;80.69
75782;DHT22;64400;44.762;37.698;2023-02-15T09:09:17;5.38;81.07
75782;DHT22;64400;44.762;37.698;2023-02-15T09:11:50;5.28;82.24
75782;DHT22;64400;44.762;37.698;2023-02-15T09:14:26;5.12;82.34
75782;DHT22;64400;44.762;37.698;2023-02-15T09:16:54;5.06;82.29
75782;DHT22;64400;44.762;37.698;2023-02-15T09:19:24;5.01;82.65
75782;DHT22;64400;44.762;37.698;2023-02-15T09:21:52;5.02;82.91
75782;DHT22;64400;44.762;37.698;2023-02-15T09:24:20;5.07;83.36
75782;DHT22;64400;44.762;37.698;2023-02-15T09:26:49;5.45;81.91
75782;DHT22;64400;44.762;37.698;2023-02-15T09:29:18;5.61;82.29
75782;DHT22;64400;44.762;37.698;2023-02-15T09:31:48;5.93;80.78
75782;DHT22;64400;44.762;37.698;2023-02-15T09:34:19;6.28;78.83
75782;DHT22;64400;44.762;37.698;2023-02-15T09:36:48;6.43;79.29
75782;DHT22;64400;44.762;37.698;2023-02-15T09:39:18;7.38;75.93
75782;DHT22;64400;44.762;37.698;2023-02-15T10:01:42;8.33;66.64
75782;DHT22;64400;44.762;37.698;2023-02-15T10:04:06;9.21;66.21
75782;DHT22;64400;44.762;37.698;2023-02-15T10:06:44;9.57;62.33
75782;DHT22;64400;44.762;37.698;2023-02-15T10:09:51;10.03;64.08
75782;DHT22;64400;44.762;37.698;2023-02-15T10:12:43;10.52;60.50
75782;DHT22;64400;44.762;37.698;2023-02-15T10:15:33;10.23;62.05
75782;DHT22;64400;44.762;37.698;2023-02-15T10:21:23;8.73;64.57
75782;DHT22;64400;44.762;37.698;2023-02-15T10:24:23;8.16;65.54
75782;DHT22;64400;44.762;37.698;2023-02-15T10:27:01;7.61;63.44
75782;DHT22;64400;44.762;37.698;2023-02-15T10:29:36;7.44;64.31
75782;DHT22;64400;44.762;37.698;2023-02-15T10:32:26;7.79;66.21
75782;DHT22;64400;44.762;37.698;2023-02-15T10:35:04;7.86;65.39
75782;DHT22;64400;44.762;37.698;2023-02-15T10:46:17;10.52;57.61
75782;DHT22;64400;44.762;37.698;2023-02-15T11:00:08;12.16;53.00
75782;DHT22;64400;44.762;37.698;2023-02-15T11:06:03;11.33;53.52
75782;DHT22;64400;44.762;37.698;2023-02-15T11:08:35;10.10;57.68
75782;DHT22;64400;44.762;37.698;2023-02-15T11:11:08;9.40;59.20
75782;DHT22;64400;44.762;37.698;2023-02-15T11:13:40;8.83;60.96
75782;DHT22;64400;44.762;37.698;2023-02-15T11:16:14;8.55;62.74
75782;DHT22;64400;44.762;37.698;2023-02-15T11:19:10;8.29;63.89
75782;DHT22;64400;44.762;37.698;2023-02-15T11:21:43;8.00;65.08
75782;DHT22;64400;44.762;37.698;2023-02-15T11:24:14;7.44;66.41
75782;DHT22;64400;44.762;37.698;2023-02-15T11:27:02;6.88;68.50
75782;DHT22;64400;44.762;37.698;2023-02-15T11:29:38;6.63;71.19
75782;DHT22;64400;44.762;37.698;2023-02-15T11:32:21;6.34;71.67
75782;DHT22;64400;44.762;37.698;2023-02-15T11:35:31;5.98;72.61
75782;DHT22;64400;44.762;37.698;2023-02-15T11:38:12;5.85;73.77
75782;DHT22;64400;44.762;37.698;2023-02-15T11:40:48;5.80;74.15
75782;DHT22;64400;44.762;37.698;2023-02-15T11:46:11;5.80;75.26
75782;DHT22;64400;44.762;37.698;2023-02-15T11:48:41;5.74;74.40
75782;DHT22;64400;44.762;37.698;2023-02-15T11:51:13;5.67;74.43
75782;DHT22;64400;44.762;37.698;2023-02-15T11:53:45;5.62;74.31
75782;DHT22;64400;44.762;37.698;2023-02-15T11:56:19;5.52;73.66
75782;DHT22;64400;44.762;37.698;2023-02-15T11:58:58;5.53;75.38
75782;DHT22;64400;44.762;37.698;2023-02-15T12:01:30;5.51;74.96
75782;DHT22;64400;44.762;37.698;2023-02-15T12:10:13;5.30;76.24
75782;DHT22;64400;44.762;37.698;2023-02-15T12:12:44;5.25;76.34
75782;DHT22;64400;44.762;37.698;2023-02-15T12:15:13;4.97;76.28
75782;DHT22;64400;44.762;37.698;2023-02-15T12:22:53;4.62;77.03
75782;DHT22;64400;44.762;37.698;2023-02-15T12:25:49;4.50;78.83
75782;DHT22;64400;44.762;37.698;2023-02-15T12:28:27;4.49;79.24
75782;DHT22;64400;44.762;37.698;2023-02-15T12:30:58;4.47;79.76
75782;DHT22;64400;44.762;37.698;2023-02-15T12:33:41;4.42;79.66
75782;DHT22;64400;44.762;37.698;2023-02-15T12:36:21;4.19;80.63
75782;DHT22;64400;44.762;37.698;2023-02-15T12:41:36;4.18;82.13
75782;DHT22;64400;44.762;37.698;2023-02-15T12:44:09;4.10;82.28
75782;DHT22;64400;44.762;37.698;2023-02-15T12:49:28;4.01;81.50
75782;DHT22;64400;44.762;37.698;2023-02-15T12:51:59;3.86;82.01
75782;DHT22;64400;44.762;37.698;2023-02-15T12:54:35;3.86;83.02
75782;DHT22;64400;44.762;37.698;2023-02-15T12:57:35;3.77;82.20
75782;DHT22;64400;44.762;37.698;2023-02-15T13:00:26;3.74;82.98
75782;DHT22;64400;44.762;37.698;2023-02-15T13:02:55;3.72;82.62
75782;DHT22;64400;44.762;37.698;2023-02-15T13:08:00;3.62;83.16
75782;DHT22;64400;44.762;37.698;2023-02-15T13:10:33;3.57;83.91
75782;DHT22;64400;44.762;37.698;2023-02-15T13:13:10;3.56;83.80
75782;DHT22;64400;44.762;37.698;2023-02-15T13:15:41;3.56;84.87
75782;DHT22;64400;44.762;37.698;2023-02-15T13:18:34;3.52;84.67
75782;DHT22;64400;44.762;37.698;2023-02-15T13:21:17;3.54;84.38
75782;DHT22;64400;44.762;37.698;2023-02-15T13:23:50;3.52;84.71
75782;DHT22;64400;44.762;37.698;2023-02-15T13:26:21;3.46;84.45
75782;DHT22;64400;44.762;37.698;2023-02-15T13:28:54;3.41;84.98
75782;DHT22;64400;44.762;37.698;2023-02-15T13:31:28;3.38;86.06
75782;DHT22;64400;44.762;37.698;2023-02-15T13:34:02;3.38;85.74
75782;DHT22;64400;44.762;37.698;2023-02-15T13:36:34;3.34;85.69
75782;DHT22;64400;44.762;37.698;2023-02-15T13:42:04;3.19;85.28
75782;DHT22;64400;44.762;37.698;2023-02-15T13:45:00;3.11;85.66
75782;DHT22;64400;44.762;37.698;2023-02-15T13:47:52;3.01;85.80
75782;DHT22;64400;44.762;37.698;2023-02-15T13:50:38;2.98;86.32
75782;DHT22;64400;44.762;37.698;2023-02-15T13:53:34;2.93;87.57
75782;DHT22;64400;44.762;37.698;2023-02-15T14:01:39;2.86;87.49
75782;DHT22;64400;44.762;37.698;2023-02-15T14:07:41;2.82;87.36
75782;DHT22;64400;44.762;37.698;2023-02-15T14:10:31;2.80;87.04
75782;DHT22;64400;44.762;37.698;2023-02-15T14:15:56;2.80;87.96
75782;DHT22;64400;44.762;37.698;2023-02-15T14:18:46;2.76;88.17
75782;DHT22;64400;44.762;37.698;2023-02-15T14:24:15;2.73;88.25
75782;DHT22;64400;44.762;37.698;2023-02-15T14:27:05;2.69;88.13
75782;DHT22;64400;44.762;37.698;2023-02-15T14:29:57;2.64;88.04
75782;DHT22;64400;44.762;37.698;2023-02-15T14:34:58;2.60;88.94
75782;DHT22;64400;44.762;37.698;2023-02-15T14:49:23;2.47;89.57
75782;DHT22;64400;44.762;37.698;2023-02-15T14:52:11;2.36;89.08
75782;DHT22;64400;44.762;37.698;2023-02-15T15:02:24;2.19;89.85
75782;DHT22;64400;44.762;37.698;2023-02-15T15:07:54;2.09;90.12
75782;DHT22;64400;44.762;37.698;2023-02-15T15:12:55;1.98;90.01
75782;DHT22;64400;44.762;37.698;2023-02-15T15:20:45;1.90;91.25
75782;DHT22;64400;44.762;37.698;2023-02-15T15:25:56;1.86;91.50
75782;DHT22;64400;44.762;37.698;2023-02-15T15:31:36;1.90;91.41
75782;DHT22;64400;44.762;37.698;2023-02-15T15:46:00;1.84;91.49
75782;DHT22;64400;44.762;37.698;2023-02-15T15:48:28;1.78;91.20
75782;DHT22;64400;44.762;37.698;2023-02-15T15:51:02;1.73;91.43
75782;DHT22;64400;44.762;37.698;2023-02-15T15:53:37;1.65;91.01
75782;DHT22;64400;44.762;37.698;2023-02-15T15:56:11;1.56;91.78
75782;DHT22;64400;44.762;37.698;2023-02-15T15:58:44;1.54;92.44
75782;DHT22;64400;44.762;37.698;2023-02-15T16:01:12;1.50;92.48
75782;DHT22;64400;44.762;37.698;2023-02-15T16:03:52;1.49;92.16
75782;DHT22;64400;44.762;37.698;2023-02-15T16:06:35;1.43;92.53
75782;DHT22;64400;44.762;37.698;2023-02-15T16:09:24;1.43;92.27
75782;DHT22;64400;44.762;37.698;2023-02-15T16:11:55;1.41;92.12
75782;DHT22;64400;44.762;37.698;2023-02-15T16:14:35;1.40;92.39
75782;DHT22;64400;44.762;37.698;2023-02-15T16:17:06;1.40;92.62
75782;DHT22;64400;44.762;37.698;2023-02-15T16:19:38;1.38;93.04
75782;DHT22;64400;44.762;37.698;2023-02-15T16:22:11;1.32;92.75
75782;DHT22;64400;44.762;37.698;2023-02-15T16:27:44;1.27;93.77
75782;DHT22;64400;44.762;37.698;2023-02-15T16:30:33;1.31;93.95
75782;DHT22;64400;44.762;37.698;2023-02-15T16:33:08;1.28;93.50
75782;DHT22;64400;44.762;37.698;2023-02-15T16:35:52;1.24;93.90
75782;DHT22;64400;44.762;37.698;2023-02-15T16:41:15;1.20;93.88
75782;DHT22;64400;44.762;37.698;2023-02-15T16:43:48;1.22;94.19
75782;DHT22;64400;44.762;37.698;2023-02-15T16:46:21;1.18;94.30
75782;DHT22;64400;44.762;37.698;2023-02-15T16:48:52;1.12;94.60
75782;DHT22;64400;44.762;37.698;2023-02-15T16:51:26;1.11;95.16
75782;DHT22;64400;44.762;37.698;2023-02-15T16:53:57;1.07;94.80
75782;DHT22;64400;44.762;37.698;2023-02-15T16:56:30;1.05;94.49
75782;DHT22;64400;44.762;37.698;2023-02-15T16:58:59;1.05;94.46
75782;DHT22;64400;44.762;37.698;2023-02-15T17:01:30;0.99;94.62
75782;DHT22;64400;44.762;37.698;2023-02-15T17:04:34;0.96;94.41
75782;DHT22;64400;44.762;37.698;2023-02-15T17:07:20;0.95;94.62
75782;DHT22;64400;44.762;37.698;2023-02-15T17:09:56;0.88;95.07
75782;DHT22;64400;44.762;37.698;2023-02-15T17:15:34;0.84;94.99
75782;DHT22;64400;44.762;37.698;2023-02-15T17:18:06;0.81;95.41
75782;DHT22;64400;44.762;37.698;2023-02-15T17:20:38;0.82;95.92
75782;DHT22;64400;44.762;37.698;2023-02-15T17:25:54;0.77;96.33
75782;DHT22;64400;44.762;37.698;2023-02-15T17:28:25;0.75;96.34
75782;DHT22;64400;44.762;37.698;2023-02-15T17:30:54;0.74;95.84
75782;DHT22;64400;44.762;37.698;2023-02-15T17:33:36;0.73;96.14
75782;DHT22;64400;44.762;37.698;2023-02-15T17:36:11;0.71;96.01
75782;DHT22;64400;44.762;37.698;2023-02-15T17:39:04;0.67;95.94
75782;DHT22;64400;44.762;37.698;2023-02-15T17:41:34;0.65;95.89
75782;DHT22;64400;44.762;37.698;2023-02-15T17:44:03;0.60;95.16
75782;DHT22;64400;44.762;37.698;2023-02-15T17:46:36;0.62;94.78
75782;DHT22;64400;44.762;37.698;2023-02-15T17:49:05;0.62;95.69
75782;DHT22;64400;44.762;37.698;2023-02-15T17:51:34;0.60;95.69
75782;DHT22;64400;44.762;37.698;2023-02-15T17:54:04;0.57;95.75
75782;DHT22;64400;44.762;37.698;2023-02-15T17:56:53;0.54;95.78
75782;DHT22;64400;44.762;37.698;2023-02-15T17:59:23;0.51;95.62
75782;DHT22;64400;44.762;37.698;2023-02-15T18:01:53;0.47;96.07
75782;DHT22;64400;44.762;37.698;2023-02-15T18:04:40;0.44;96.80
75782;DHT22;64400;44.762;37.698;2023-02-15T18:07:29;0.42;96.66
75782;DHT22;64400;44.762;37.698;2023-02-15T18:10:17;0.42;96.49
75782;DHT22;64400;44.762;37.698;2023-02-15T18:13:05;0.37;96.36
75782;DHT22;64400;44.762;37.698;2023-02-15T18:15:33;0.33;96.27
75782;DHT22;64400;44.762;37.698;2023-02-15T18:18:02;0.32;96.59
75782;DHT22;64400;44.762;37.698;2023-02-15T18:20:40;0.32;96.57
75782;DHT22;64400;44.762;37.698;2023-02-15T18:23:13;0.28;96.14
75782;DHT22;64400;44.762;37.698;2023-02-15T18:25:41;0.27;95.84
75782;DHT22;64400;44.762;37.698;2023-02-15T18:28:10;0.27;95.36
75782;DHT22;64400;44.762;37.698;2023-02-15T18:30:41;0.25;96.39
75782;DHT22;64400;44.762;37.698;2023-02-15T18:33:28;0.28;96.13
75782;DHT22;64400;44.762;37.698;2023-02-15T18:35:59;0.27;96.42
75782;DHT22;64400;44.762;37.698;2023-02-15T18:38:27;0.29;96.78
75782;DHT22;64400;44.762;37.698;2023-02-15T18:40:55;0.28;96.47
75782;DHT22;64400;44.762;37.698;2023-02-15T18:43:24;0.28;96.65
75782;DHT22;64400;44.762;37.698;2023-02-15T18:45:54;0.29;97.07
75782;DHT22;64400;44.762;37.698;2023-02-15T18:48:22;0.30;96.68
75782;DHT22;64400;44.762;37.698;2023-02-15T18:50:51;0.28;97.03
75782;DHT22;64400;44.762;37.698;2023-02-15T18:53:20;0.27;97.26
75782;DHT22;64400;44.762;37.698;2023-02-15T18:55:52;0.27;97.26
75782;DHT22;64400;44.762;37.698;2023-02-15T18:58:21;0.28;96.94